Terminal Aerodrome Forecast
Issued by NWS

Home | Current Version | Previous Version | Text Only | Print | Product List | Glossary On
Versions: 1 2 3 4 5 6 7 8 9 10 11 12 13 14 15 16 17 18 19 20
000
FTUS43 KDTX 231400 AAA
TAFDET
TAF AMD
KDET 231440Z 2315/2412 07007KT 4SM BR OVC003
     FM231700 08005KT P6SM SCT006 SCT035
      TEMPO 2317/2318 BKN006
     FM232200 10007KT P6SM SCT060
     FM240700 07005KT 4SM BR BKN015=

USA.gov is the U.S. government's official web portal to all federal, state and local government web resources and services.